首页
METAR-TAF:

METAR-TAF

机场 :

坎贝尔河, 不列颠哥伦比亚, 加拿大

纬度: 49-57N, 经度: 125-16W, 海拔: 106米

当前天气观测

该预报发布于51分钟前的15:00 UTC
风速10节,风向东南
温度 10°C
湿度 100%
气压 1015 hPa
能見度: 19.3公里
少量云层高于500英尺
散云层高于1000英尺
阴天层高于5600英尺

METAR: CYBL 261500Z 13010KT 12SM FEW005 SCT010 OVC056 10/10 A2998 RMK SF1SF4SC4 SF TR SLP155

时间: 08:51 (15:51 UTC)

预报

该预报发布于1小时和11分钟前的14:40 UTC
预报有效从26日的 15点(UTC)到 27日的 03点(UTC)
风速10节,风向东转东南,有时为20节阵风
能見度: 8.0公里
少量云层高于500英尺
多云层高于1200英尺
阴天层高于6000英尺
小雨, 轻雾
短暂存在
从 26日的 15点(UTC)到 26日的 19点(UTC)
能見度: 10公里
少量云层高于800英尺
散云层高于1200英尺
阴天层高于6000英尺
从 26日的 1900点(UTC)
风速15节,风向东转东南,有时为25节阵风
能見度: 10公里
散云层高于800英尺
多云层高于1500英尺
阴天层高于4000英尺
小雨
短暂存在
从 26日的 19点(UTC)到 27日的 03点(UTC)
能見度: 6.4公里
多云层高于800英尺
阴天层高于1500英尺
小雨, 轻雾

TAF: CYBL 261440Z 2615/2703 12010G20KT 5SM -RA BR FEW005 BKN012 OVC060 TEMPO 2615/2619 P6SM NSW FEW008 SCT012 OVC060 FM261900 12015G25KT P6SM -RA SCT008 BKN015 OVC040 TEMPO 2619/2703 4SM -RA BR BKN008 OVC015 RMK NXT FCST BY 261900Z

超过4000个机场的气象观测和天气预报(METAR&TAF报告)。

可查询的气象台以黄色和红色小点在地图上表示。

将鼠标移到小点上方,可查看气象台名称。

然后点击查看天气观测和预报。

如需切换地图:点击带黑十字的绿色按钮放大地图;点击带横线的绿色按钮缩小地图;或者点击绿色箭头查看邻近地区的地图。


METAR-TAF: